Procure no Apolo11
Meteógrafos Informações Meteorológicas em tempo real
Aeroporto de Congonhas
01-02-2023 16:55 BRT (UTC-3)

Temperatura atual: 27 graus 80 F    Umidade relativa: 47 %
Velocidade do vento: 07 nós 12 Km/h    Direção: 290 graus WNW
Ajuste do altímetro ..: 1015 HPA
Visibilidade: Ótima    Tempo presente: Poucas nuvens esparsas

Observação
Poucas nuvens a 3000 Pés., Nuvens esparsas a 4300 Pés.
Data Hora BRTTempo°CUmidadePressãoVentoVisib.
01/02 - 15:55   Poucas nuvens esparsas 27° 47% 1015 Oeste-noroeste/12 km/h 9999
01/02 - 14:55   Poucas nuvens esparsas 27° 58% 1016 Norte-noroeste/12 km/h OK
01/02 - 13:55   Poucas nuvens esparsas 27° 58% 1017 Oeste-noroeste/14 km/h 9999
01/02 - 12:55   Não Disponível 26° 61% 1018 Norte-noroeste/16 km/h 9999
01/02 - 11:55   Parcialmente Nublado 26° 61% 1018 Norte-noroeste/19 km/h 9999
01/02 - 10:55   Parcialmente Nublado 24° 73% 1018 Norte-noroeste/12 km/h 9999
01/02 - 09:55   Poucas nuvens esparsas 22° 83% 1018 Norte-noroeste/12 km/h 9999
01/02 - 08:55   Parcialmente Nublado 21° 88% 1018 Norte-noroeste/12 km/h 9999
01/02 - 07:55   Parcialmente Nublado 21° 88% 1017 Norte/12 km/h 9999
01/02 - 06:55   Não Disponível 20° 93% 1016 Norte/10 km/h OK
01/02 - 05:55   Céu Limpo 20° 88% 1016 Norte-noroeste/14 km/h OK
01/02 - 04:55   Não Disponível 21° 88% 1016 Norte/7 km/h OK
01/02 - 03:55   Não Disponível 21° 88% 1016 Norte/9 km/h OK
01/02 - 02:55   Chovendo fraco 21° 88% 1017 Nordeste/9 km/h OK
01/02 - 01:55   Chovendo fraco 21° 88% 1017 Norte-nordeste/9 km/h OK
01/02 - 00:55   Chovendo fraco 21° 88% 1018 Norte/9 km/h 9999
31/01 - 23:55   Chovendo 21° 94% 1019 Norte/9 km/h 9000
31/01 - 22:55   Trovoadas na vizinhança 21° 94% 1019 Este-sudeste/5 km/h 7000
31/01 - 21:55   Trovoadas na vizinhança 21° 94% 1018 Este-sudeste/5 km/h 7000
31/01 - 20:55   Chovendo 21° 88% 1017 Sul-sudoeste/18 km/h 9000
31/01 - 19:55   Chuva fraca e trovoadas 24° 73% 1016 Nordeste/5 km/h 6000
31/01 - 18:55   Trovoadas na vizinhança 25° 65% 1015 Sul-sudoeste/9 km/h 9000
31/01 - 17:55   Chovendo na vizinhança 26° 65% 1014 Sudoeste/10 km/h 9000
31/01 - 16:55   Parcialmente Nublado 28° 54% 1014 Norte-noroeste/10 km/h 9999

Termo de Uso  |   Links Úteis  |   Imprensa  |  Anuncie  |  Fale Conosco  |  Versão Celular  |   Política de Privacidade

Apolo11.com - Todos os direitos reservados - 2000 - 2023

"O ser humano é uma experiência: o tempo dirá se valeu a pena" - Mark Twain -